Summer Point, Vermont
Current Conditions -  °F | °C
As of 7:35 AM on Friday 24 Oct 2014 (Local Time) from K6B0 Reporting Station
Light Rain Light Rain  
Wind Chill: 35°   Ceiling: 600
Heat Index: 41°   Visibility: 3mi
Dew Point: 41°   Wind: 9mph
Humidity: 100%   Direction: 360°N
Pressure: 29.84"   Gusts: NA
Location:  44.0804°N, 73.3324°W
Report Text: K6B0 241135Z AUTO 36008KT 330V030 3SM -RA OVC006 05/05 A2984 RMK AO2 T00510051
Loading
Personal Weather Stations






























Interactive Weather Map New forecast layout! Learn more

10-Day Weather Forecast

Advertisements
Track Severe Weather on mobile